»·PEaware :: N6218B KPDX-KPSC

N6218B :: KPDX-KPSC

FLIGHT INFORMATION

Flight Status: Arrived
Operator: Privately registered:
United States
More flights under this callsign
Pilot: Anonymous 16594 (16594)
Aircraft: CESSNA 182 SKYLANE
(C182)
More flights by this aircraft type
Origin: KPDX Portland Intl
United States
Destination: KPSC Tri-Cities
United States
More flights between these airports :: More routes between these airports
Route: +
File this flight plan on PilotEdge
Remarks:
Altitude:
(Current/Filed)
5,000ft
Speed:
(Current/Filed)
0kts
Departed: 21-Feb-18 04:29 PM
Arrived: 21-Feb-18 05:46 PM
Distance/Time
Traveled:
151nm/1:17
Distance/Time
To Go:
Arrived

Flight Plot

Page will automatically refresh every two minutes.

Flight plan parsing failed; only flown route is shown


Map Options




Map Legend


Flown Route
Filed Route
Departure Airport
Arrival Airport
Navaid (VOR, NDB)
Fix

Horizontal Profiles

Position Reports

Time Latitude Longitude Heading Altitude Ground
Speed
21-Feb-18 16:26 45.584806 -122.578319 208 33ft 0kts
21-Feb-18 16:27 45.584802 -122.578322 208 33ft 0kts
21-Feb-18 16:28 45.585001 -122.578175 23 33ft 0kts
21-Feb-18 16:29 45.586345 -122.577913 26 33ft 12kts
21-Feb-18 16:30 45.588796 -122.582911 299 33ft 20kts
21-Feb-18 16:31 45.591738 -122.590311 298 33ft 18kts
21-Feb-18 16:32 45.593276 -122.594165 299 33ft 16kts
21-Feb-18 16:33 45.594797 -122.597046 47 33ft 0kts
21-Feb-18 16:34 45.594800 -122.597041 47 33ft 0kts
21-Feb-18 16:35 45.594804 -122.597035 47 33ft 0kts
21-Feb-18 16:36 45.589045 -122.580658 118 295ft 97kts
21-Feb-18 16:37 45.586978 -122.544006 92 1296ft 93kts
21-Feb-18 16:38 45.581919 -122.507856 101 2121ft 95kts
21-Feb-18 16:39 45.577448 -122.469534 87 2865ft 101kts
21-Feb-18 16:40 45.580847 -122.429844 93 3577ft 104kts
21-Feb-18 16:41 45.577771 -122.387257 99 4171ft 111kts
21-Feb-18 16:42 45.573139 -122.342707 95 4581ft 122kts
21-Feb-18 16:43 45.570458 -122.293547 92 4970ft 126kts
21-Feb-18 16:44 45.573235 -122.242355 77 5180ft 134kts
21-Feb-18 16:45 45.586416 -122.193763 68 5365ft 132kts
21-Feb-18 16:46 45.594658 -122.141888 80 5096ft 133kts
21-Feb-18 16:47 45.600315 -122.088126 78 5013ft 142kts
21-Feb-18 16:48 45.611430 -122.033365 66 4966ft 145kts
21-Feb-18 16:49 45.629602 -121.982566 53 5024ft 142kts
21-Feb-18 16:50 45.652746 -121.936815 54 5045ft 142kts
21-Feb-18 16:51 45.673607 -121.888538 66 5062ft 143kts
21-Feb-18 16:52 45.684633 -121.833777 77 5087ft 143kts
21-Feb-18 16:53 45.692430 -121.777814 77 5113ft 143kts
21-Feb-18 16:54 45.699616 -121.721143 79 5086ft 145kts
21-Feb-18 16:55 45.705448 -121.664810 82 5137ft 144kts
21-Feb-18 16:56 45.710064 -121.607097 86 5162ft 143kts
21-Feb-18 16:57 45.705418 -121.550136 101 5480ft 144kts
21-Feb-18 16:58 45.698590 -121.492869 96 5658ft 145kts
21-Feb-18 16:59 45.699139 -121.436956 86 5538ft 124kts
21-Feb-18 17:00 45.702535 -121.388506 93 4111ft 118kts
21-Feb-18 17:01 45.697367 -121.347161 103 3476ft 99kts
21-Feb-18 17:02 45.694510 -121.308255 65 3659ft 92kts
21-Feb-18 17:03 45.688158 -121.266846 105 3844ft 120kts
21-Feb-18 17:04 45.681294 -121.214096 99 3714ft 146kts
21-Feb-18 17:05 45.675153 -121.157127 101 3528ft 142kts
21-Feb-18 17:06 45.671013 -121.100874 94 3491ft 143kts
21-Feb-18 17:07 45.667569 -121.044494 93 3518ft 142kts
21-Feb-18 17:08 45.667773 -120.987622 97 3521ft 141kts
21-Feb-18 17:09 45.664000 -120.931516 85 3518ft 143kts
21-Feb-18 17:10 45.673842 -120.876302 74 3532ft 142kts
21-Feb-18 17:11 45.686614 -120.822645 68 3544ft 143kts
21-Feb-18 17:12 45.698486 -120.768443 73 3553ft 142kts
21-Feb-18 17:13 45.712985 -120.715550 63 3569ft 143kts
21-Feb-18 17:14 45.732717 -120.666232 69 3572ft 143kts
21-Feb-18 17:15 45.740617 -120.611017 91 3562ft 143kts
21-Feb-18 17:16 45.739685 -120.553844 97 3544ft 143kts
21-Feb-18 17:17 45.735650 -120.497491 99 3546ft 142kts
21-Feb-18 17:18 45.732141 -120.440871 95 3546ft 142kts
21-Feb-18 17:19 45.731988 -120.384174 87 3541ft 143kts
21-Feb-18 17:20 45.739282 -120.328096 77 3542ft 144kts
21-Feb-18 17:21 45.751395 -120.273305 72 3547ft 144kts
21-Feb-18 17:22 45.764614 -120.219053 70 3533ft 145kts
21-Feb-18 17:23 45.780755 -120.166170 69 3551ft 144kts
21-Feb-18 17:24 45.797544 -120.113485 69 3555ft 145kts
21-Feb-18 17:25 45.811299 -120.059402 68 3560ft 145kts
21-Feb-18 17:26 45.829679 -120.008010 59 3572ft 145kts
21-Feb-18 17:27 45.857887 -119.966282 49 3543ft 148kts
21-Feb-18 17:28 45.872736 -119.911672 75 3413ft 148kts
21-Feb-18 17:29 45.883142 -119.854502 78 3188ft 148kts
21-Feb-18 17:30 45.894101 -119.798196 77 3024ft 143kts
21-Feb-18 17:31 45.905261 -119.745080 75 3400ft 139kts
21-Feb-18 17:32 45.918863 -119.692415 74 3655ft 141kts
21-Feb-18 17:33 45.928883 -119.636707 80 3595ft 144kts
21-Feb-18 17:34 45.933976 -119.579914 89 3447ft 142kts
21-Feb-18 17:35 45.937313 -119.524588 85 3415ft 138kts
21-Feb-18 17:36 45.940897 -119.469054 90 3355ft 139kts
21-Feb-18 17:37 45.944632 -119.422986 80 3336ft 140kts
21-Feb-18 17:38 45.955335 -119.369215 49 3202ft 148kts
21-Feb-18 17:39 45.993388 -119.333127 23 3349ft 140kts
21-Feb-18 17:40 46.023721 -119.316297 18 3421ft 140kts
21-Feb-18 17:41 46.057738 -119.301799 15 3440ft 116kts
21-Feb-18 17:42 46.086841 -119.281589 29 3338ft 116kts
21-Feb-18 17:43 46.115964 -119.261057 11 3197ft 117kts
21-Feb-18 17:44 46.148118 -119.259186 343 3018ft 116kts
21-Feb-18 17:45 46.178487 -119.253761 35 2867ft 113kts
21-Feb-18 17:46 46.201943 -119.221823 46 2579ft 115kts
21-Feb-18 17:47 46.224508 -119.188557 42 2421ft 116kts
21-Feb-18 17:48 46.228131 -119.147750 105 1828ft 111kts
21-Feb-18 17:49 46.242919 -119.114469 42 1444ft 87kts
21-Feb-18 17:50 46.260207 -119.095591 41 1483ft 81kts
21-Feb-18 17:51 46.276670 -119.089991 276 1145ft 63kts
21-Feb-18 17:52 46.268206 -119.111101 228 418ft 48kts
21-Feb-18 17:53 46.264092 -119.117258 223 410ft 12kts
21-Feb-18 17:54 46.262363 -119.116327 137 410ft 17kts
21-Feb-18 17:55 46.260641 -119.115824 121 410ft 0kts
21-Feb-18 17:56 46.260640 -119.115823 121 410ft 0kts

Navigation Log

Ident Type
Flight plan parsing failed, navigation log unavailable